Time;durP1;ratioP1;P1;durP2;ratioP2;P2;SDS_P1;SDS_P2;PMS_P1;PMS_P2;Temp;Humidity;BMP_temperature;BMP_pressure;BME280_temperature;BME280_humidity;BME280_pressure;Samples;Min_cycle;Max_cycle;Signal;HPM_P1;HPM_P2
2023/11/10 00:14:57;;;;;;;21.30;12.60;;;;;;;9.07;95.93;99339.75;675762;1262;139050;-79
2023/11/10 00:30:34;;;;;;;23.70;12.90;;;;;;;9.11;96.43;99338.16;677132;1263;138894;-79
2023/11/10 00:46:11;;;;;;;20.90;12.60;;;;;;;9.32;95.74;99333.14;672566;1264;138680;-79
2023/11/10 01:01:48;;;;;;;18.50;11.40;;;;;;;9.61;94.66;99319.70;671767;1262;138890;-79
2023/11/10 01:17:25;;;;;;;19.10;12.00;;;;;;;9.88;92.73;99311.27;673269;1263;138940;-79
2023/11/10 01:33:02;;;;;;;19.90;11.90;;;;;;;9.86;93.43;99298.02;676199;1264;139237;-79
2023/11/10 01:48:39;;;;;;;22.50;11.70;;;;;;;9.80;94.09;99283.25;673446;1263;139541;-79
2023/11/10 02:04:12;;;;;;;21.20;11.10;;;;;;;9.89;93.52;99263.10;672116;1263;139134;-79
2023/11/10 02:19:49;;;;;;;16.70;10.70;;;;;;;9.85;94.51;99251.79;675489;1263;138980;-79
2023/11/10 02:35:26;;;;;;;21.70;11.60;;;;;;;9.90;94.03;99238.25;677773;1263;139095;-79
2023/11/10 02:51:03;;;;;;;18.60;11.60;;;;;;;9.71;95.72;99238.60;677789;1263;140731;-79
2023/11/10 03:06:40;;;;;;;20.60;11.80;;;;;;;9.71;96.41;99231.45;672049;1263;140330;-79
2023/11/10 03:22:17;;;;;;;19.40;12.20;;;;;;;9.52;97.49;99225.50;678215;1257;139200;-79
2023/11/10 03:37:54;;;;;;;17.90;12.30;;;;;;;9.43;98.41;99207.98;675540;1262;139638;-79
2023/11/10 03:53:31;;;;;;;18.40;11.20;;;;;;;9.48;98.46;99202.98;677138;1262;138986;-79
2023/11/10 04:09:10;;;;;;;16.50;11.70;;;;;;;9.41;99.00;99187.64;665406;1263;139488;-78
2023/11/10 04:24:47;;;;;;;18.90;11.20;;;;;;;9.37;99.25;99182.62;678526;1262;139929;-78
2023/11/10 04:40:27;;;;;;;16.90;11.40;;;;;;;9.37;99.21;99176.69;681336;1263;139732;-79
2023/11/10 04:56:04;;;;;;;17.70;12.00;;;;;;;9.20;99.63;99187.11;679183;1262;139522;-79
2023/11/10 05:11:41;;;;;;;18.90;11.60;;;;;;;9.12;99.34;99187.23;675500;1263;138912;-80
2023/11/10 05:27:18;;;;;;;22.30;12.60;;;;;;;9.01;99.74;99171.16;678932;1260;139350;-80
2023/11/10 05:42:55;;;;;;;17.50;12.10;;;;;;;8.99;99.73;99169.64;678418;1262;139481;-80
2023/11/10 05:58:33;;;;;;;21.20;13.10;;;;;;;9.01;99.71;99171.84;673725;1262;139034;-79
2023/11/10 06:14:10;;;;;;;23.50;12.70;;;;;;;9.01;99.97;99171.67;682048;1261;139431;-80
2023/11/10 06:29:47;;;;;;;21.00;12.70;;;;;;;8.98;100.00;99180.05;675558;1272;141420;-79
2023/11/10 06:45:24;;;;;;;21.40;12.50;;;;;;;9.39;98.15;99186.06;678332;1262;140088;-79
2023/11/10 07:01:01;;;;;;;55.60;23.50;;;;;;;9.39;98.15;99190.58;678320;1265;139857;-79
2023/11/10 07:16:38;;;;;;;199.40;82.20;;;;;;;9.67;95.76;99197.80;672380;1263;139459;-78
2023/11/10 07:32:15;;;;;;;35.90;20.10;;;;;;;9.68;94.84;99212.66;676830;1262;140237;-79
2023/11/10 07:47:56;;;;;;;30.20;16.70;;;;;;;10.53;92.81;99215.87;678844;1264;139919;-79
2023/11/10 08:03:33;;;;;;;28.00;14.10;;;;;;;11.68;87.70;99216.11;678039;1264;140838;-79
2023/11/10 08:19:10;;;;;;;25.90;14.60;;;;;;;11.52;86.74;99217.82;677951;1259;139755;-79
2023/11/10 08:34:47;;;;;;;24.20;14.50;;;;;;;11.70;86.25;99205.70;678203;1264;141237;-79
2023/11/10 08:50:24;;;;;;;21.50;12.60;;;;;;;12.41;83.30;99199.16;669933;1263;10141445;-79
2023/11/10 09:06:08;;;;;;;24.80;12.70;;;;;;;13.72;80.12;99207.62;672126;1264;140602;-80
2023/11/10 09:21:45;;;;;;;25.30;15.10;;;;;;;14.46;75.02;99215.86;682134;1260;141128;-79
2023/11/10 09:37:23;;;;;;;30.60;12.30;;;;;;;14.56;72.11;99224.38;676831;1263;140078;-79
2023/11/10 09:53:03;;;;;;;17.40;10.30;;;;;;;14.10;73.23;99213.85;674815;1258;140427;-79
2023/11/10 10:08:40;;;;;;;20.90;11.50;;;;;;;13.95;74.03;99199.84;675662;1262;140287;-77
2023/11/10 10:24:17;;;;;;;13.30;9.40;;;;;;;15.12;72.16;99181.75;681418;1257;139867;-78
2023/11/10 10:39:55;;;;;;;15.90;9.40;;;;;;;15.01;70.64;99173.45;680475;1263;139434;-77
2023/11/10 10:55:32;;;;;;;33.90;16.00;;;;;;;13.60;74.73;99156.63;679337;1257;140120;-80
2023/11/10 11:11:31;;;;;;;19.80;11.80;;;;;;;13.72;76.69;99135.89;678665;1260;139876;-79
2023/11/10 11:27:11;;;;;;;19.20;11.20;;;;;;;13.72;77.67;99127.02;679992;1256;139885;-79
2023/11/10 11:42:49;;;;;;;139.80;54.70;;;;;;;13.75;76.85;99120.96;680001;1259;139715;-79
2023/11/10 11:58:29;;;;;;;24.20;14.10;;;;;;;13.58;78.23;99105.06;681112;1262;140169;-79
2023/11/10 12:14:08;;;;;;;21.30;12.10;;;;;;;13.38;78.95;99109.55;678772;1259;140279;-80
2023/11/10 12:29:50;;;;;;;40.50;19.50;;;;;;;13.41;79.54;99115.14;677404;1262;139255;-77
2023/11/10 12:45:27;;;;;;;16.30;11.30;;;;;;;13.39;80.44;99116.13;678704;1260;139147;-79
2023/11/10 13:01:06;;;;;;;13.60;10.40;;;;;;;13.13;80.36;99127.02;678795;1260;139353;-79
2023/11/10 13:16:47;;;;;;;22.70;10.50;;;;;;;13.06;80.81;99109.79;677274;1259;140063;-80
2023/11/10 13:32:24;;;;;;;27.30;14.70;;;;;;;12.93;82.18;99101.26;677377;1260;140211;-80
2023/11/10 13:48:01;;;;;;;20.10;11.20;;;;;;;12.88;82.38;99099.92;681569;1259;139494;-80
2023/11/10 14:03:39;;;;;;;23.40;12.40;;;;;;;12.71;82.89;99113.92;680048;1260;140948;-79
2023/11/10 14:19:15;;;;;;;17.90;10.60;;;;;;;12.47;84.07;99119.21;678835;1260;139381;-80
2023/11/10 14:34:56;;;;;;;35.30;23.10;;;;;;;12.26;85.02;99113.88;679395;1262;139638;-80
2023/11/10 14:50:37;;;;;;;125.80;51.50;;;;;;;12.06;86.20;99109.45;675286;1262;139747;-80
2023/11/10 15:06:15;;;;;;;77.60;38.40;;;;;;;12.07;86.88;99109.71;672520;1260;139986;-80
2023/11/10 15:21:52;;;;;;;70.50;38.40;;;;;;;11.90;88.54;99113.13;674141;1260;140115;-80
2023/11/10 15:37:32;;;;;;;43.10;27.50;;;;;;;11.47;91.74;99119.42;674905;1262;139170;-79
2023/11/10 15:53:09;;;;;;;72.90;42.10;;;;;;;11.40;92.71;99129.83;676399;1262;140078;-79
2023/11/10 16:08:46;;;;;;;44.40;28.60;;;;;;;11.47;93.57;99121.06;679395;1261;139148;-80
2023/11/10 16:24:23;;;;;;;51.00;30.10;;;;;;;11.50;94.12;99115.67;678439;1260;139193;-80
2023/11/10 16:40:00;;;;;;;261.10;100.00;;;;;;;11.36;94.30;99114.73;680962;1263;139327;-80
2023/11/10 16:55:38;;;;;;;145.70;74.90;;;;;;;11.32;94.87;99120.23;681169;1267;139572;-78
2023/11/10 17:11:17;;;;;;;74.20;37.50;;;;;;;11.30;96.33;99120.36;678814;1263;139500;-79
2023/11/10 17:26:55;;;;;;;113.60;68.00;;;;;;;11.44;96.65;99122.23;681839;1260;139390;-80
2023/11/10 17:42:34;;;;;;;97.90;49.30;;;;;;;11.37;97.28;99120.70;677961;1261;140468;-79
2023/11/10 17:58:13;;;;;;;89.60;41.60;;;;;;;11.40;97.52;99114.29;680605;1262;140057;-80
2023/11/10 18:13:51;;;;;;;97.20;45.60;;;;;;;11.35;98.07;99120.36;679688;1261;139302;-79
2023/11/10 18:29:32;;;;;;;51.70;29.40;;;;;;;11.34;98.63;99120.66;677117;1260;140210;-79
2023/11/10 18:45:09;;;;;;;108.90;60.70;;;;;;;11.28;99.37;99116.23;677105;1263;138831;-79
2023/11/10 19:00:46;;;;;;;89.60;53.80;;;;;;;11.31;99.53;99114.00;679794;1273;139625;-79
2023/11/10 19:16:23;;;;;;;60.90;33.60;;;;;;;11.29;99.70;99115.64;676759;1260;140225;-80
2023/11/10 19:32:03;;;;;;;66.80;33.30;;;;;;;11.24;100.00;99114.89;673986;1265;141053;-79
2023/11/10 19:47:40;;;;;;;44.80;26.30;;;;;;;11.23;100.00;99114.30;674006;1262;140824;-79
2023/11/10 20:03:19;;;;;;;59.00;32.50;;;;;;;11.23;99.94;99104.73;676987;1262;139480;-79
2023/11/10 20:18:57;;;;;;;53.70;28.50;;;;;;;11.22;99.99;99103.67;669973;1262;139097;-80
2023/11/10 20:34:35;;;;;;;34.70;20.20;;;;;;;11.15;100.00;99100.52;679120;1262;139340;-79
2023/11/10 20:50:13;;;;;;;38.30;22.30;;;;;;;11.10;99.86;99109.67;665136;1262;10173775;-78
2023/11/10 21:05:50;;;;;;;41.40;23.10;;;;;;;11.09;99.72;99098.85;672967;1263;139758;-79
2023/11/10 21:21:27;;;;;;;32.40;18.50;;;;;;;11.02;99.96;99097.05;670197;1263;139496;-80
2023/11/10 21:37:06;;;;;;;33.50;18.10;;;;;;;10.95;99.53;99098.29;671898;1271;139613;-79
2023/11/10 21:52:43;;;;;;;34.60;19.90;;;;;;;10.91;99.43;99090.73;676065;1263;138978;-79
2023/11/10 22:08:20;;;;;;;32.50;19.80;;;;;;;10.88;99.52;99081.77;676651;1260;139309;-79
2023/11/10 22:23:50;;;;;;;33.40;19.60;;;;;;;10.84;99.45;99079.06;675811;1273;140058;-78
2023/11/10 22:39:28;;;;;;;39.30;21.80;;;;;;;10.74;99.78;99072.45;673309;1263;139920;-79
2023/11/10 22:55:04;;;;;;;36.70;21.10;;;;;;;10.55;100.00;99064.90;672758;1275;139200;-78
2023/11/10 23:10:46;;;;;;;38.20;21.50;;;;;;;10.49;100.00;99055.87;673684;1264;139807;-79
2023/11/10 23:26:23;;;;;;;38.50;20.40;;;;;;;10.55;100.00;99058.33;675546;1272;139550;-79
2023/11/10 23:42:03;;;;;;;37.70;20.80;;;;;;;10.48;100.00;99046.86;675168;1258;140190;-79
2023/11/10 23:57:39;;;;;;;37.60;21.20;;;;;;;10.45;100.00;99040.56;679725;1263;140638;-78
